sensor_id;sensor_type;location;lat;lon;timestamp;P1;durP1;ratioP1;P2;durP2;ratioP2
44704;SDS011;30431;48.520;9.046;2022-11-21T00:01:21;3.05;;;1.40;;
44704;SDS011;30431;48.520;9.046;2022-11-21T00:03:55;2.65;;;1.13;;
44704;SDS011;30431;48.520;9.046;2022-11-21T00:06:22;1.73;;;1.15;;
44704;SDS011;30431;48.520;9.046;2022-11-21T00:08:49;1.92;;;1.13;;
44704;SDS011;30431;48.520;9.046;2022-11-21T00:11:16;1.30;;;1.00;;
44704;SDS011;30431;48.520;9.046;2022-11-21T00:13:46;1.90;;;0.90;;
44704;SDS011;30431;48.520;9.046;2022-11-21T00:16:14;2.50;;;1.23;;
44704;SDS011;30431;48.520;9.046;2022-11-21T00:18:42;1.85;;;1.08;;
44704;SDS011;30431;48.520;9.046;2022-11-21T00:21:10;1.98;;;1.10;;
44704;SDS011;30431;48.520;9.046;2022-11-21T00:23:39;3.00;;;1.20;;
44704;SDS011;30431;48.520;9.046;2022-11-21T00:26:06;1.27;;;1.15;;
44704;SDS011;30431;48.520;9.046;2022-11-21T00:28:35;1.90;;;1.13;;
44704;SDS011;30431;48.520;9.046;2022-11-21T00:33:30;2.95;;;1.38;;
44704;SDS011;30431;48.520;9.046;2022-11-21T00:35:57;1.63;;;1.10;;
44704;SDS011;30431;48.520;9.046;2022-11-21T00:38:26;2.75;;;1.33;;
44704;SDS011;30431;48.520;9.046;2022-11-21T00:40:53;1.50;;;0.98;;
44704;SDS011;30431;48.520;9.046;2022-11-21T00:43:20;1.33;;;1.02;;
44704;SDS011;30431;48.520;9.046;2022-11-21T00:45:47;2.60;;;1.50;;
44704;SDS011;30431;48.520;9.046;2022-11-21T00:48:14;4.57;;;1.27;;
44704;SDS011;30431;48.520;9.046;2022-11-21T00:50:48;3.40;;;1.40;;
44704;SDS011;30431;48.520;9.046;2022-11-21T00:53:17;2.60;;;1.40;;
44704;SDS011;30431;48.520;9.046;2022-11-21T00:55:47;1.83;;;1.33;;
44704;SDS011;30431;48.520;9.046;2022-11-21T00:58:14;4.03;;;1.45;;
44704;SDS011;30431;48.520;9.046;2022-11-21T01:00:45;4.15;;;1.50;;
44704;SDS011;30431;48.520;9.046;2022-11-21T01:03:12;2.80;;;1.48;;
44704;SDS011;30431;48.520;9.046;2022-11-21T01:05:41;2.38;;;1.25;;
44704;SDS011;30431;48.520;9.046;2022-11-21T01:08:08;1.27;;;1.17;;
44704;SDS011;30431;48.520;9.046;2022-11-21T01:10:37;2.13;;;1.20;;
44704;SDS011;30431;48.520;9.046;2022-11-21T01:13:07;2.42;;;1.30;;
44704;SDS011;30431;48.520;9.046;2022-11-21T01:15:36;3.30;;;1.40;;
44704;SDS011;30431;48.520;9.046;2022-11-21T01:18:03;3.17;;;1.45;;
44704;SDS011;30431;48.520;9.046;2022-11-21T01:20:30;3.65;;;1.60;;
44704;SDS011;30431;48.520;9.046;2022-11-21T01:22:57;3.78;;;1.30;;
44704;SDS011;30431;48.520;9.046;2022-11-21T01:25:24;5.78;;;1.58;;
44704;SDS011;30431;48.520;9.046;2022-11-21T01:27:51;3.67;;;1.60;;
44704;SDS011;30431;48.520;9.046;2022-11-21T01:30:18;3.97;;;1.50;;
44704;SDS011;30431;48.520;9.046;2022-11-21T01:32:48;3.90;;;1.88;;
44704;SDS011;30431;48.520;9.046;2022-11-21T01:35:20;5.18;;;1.50;;
44704;SDS011;30431;48.520;9.046;2022-11-21T01:37:47;5.05;;;1.67;;
44704;SDS011;30431;48.520;9.046;2022-11-21T01:40:17;4.00;;;1.60;;
44704;SDS011;30431;48.520;9.046;2022-11-21T01:42:55;4.00;;;1.55;;
44704;SDS011;30431;48.520;9.046;2022-11-21T01:48:16;3.13;;;1.52;;
44704;SDS011;30431;48.520;9.046;2022-11-21T01:53:13;6.10;;;1.27;;
44704;SDS011;30431;48.520;9.046;2022-11-21T01:55:40;4.15;;;1.67;;
44704;SDS011;30431;48.520;9.046;2022-11-21T01:58:07;4.18;;;1.50;;
44704;SDS011;30431;48.520;9.046;2022-11-21T02:00:36;4.68;;;1.70;;
44704;SDS011;30431;48.520;9.046;2022-11-21T02:03:07;4.47;;;1.60;;
44704;SDS011;30431;48.520;9.046;2022-11-21T02:05:38;5.60;;;1.80;;
44704;SDS011;30431;48.520;9.046;2022-11-21T02:08:10;4.03;;;1.52;;
44704;SDS011;30431;48.520;9.046;2022-11-21T02:10:42;8.25;;;1.80;;
44704;SDS011;30431;48.520;9.046;2022-11-21T02:13:19;4.20;;;1.33;;
44704;SDS011;30431;48.520;9.046;2022-11-21T02:15:48;3.75;;;1.63;;
44704;SDS011;30431;48.520;9.046;2022-11-21T02:20:43;3.95;;;1.60;;
44704;SDS011;30431;48.520;9.046;2022-11-21T02:23:30;5.55;;;2.10;;
44704;SDS011;30431;48.520;9.046;2022-11-21T02:26:08;6.40;;;1.73;;
44704;SDS011;30431;48.520;9.046;2022-11-21T02:28:36;8.00;;;1.75;;
44704;SDS011;30431;48.520;9.046;2022-11-21T02:31:06;5.38;;;1.98;;
44704;SDS011;30431;48.520;9.046;2022-11-21T02:33:33;4.07;;;1.60;;
44704;SDS011;30431;48.520;9.046;2022-11-21T02:36:00;6.63;;;1.90;;
44704;SDS011;30431;48.520;9.046;2022-11-21T02:38:31;4.97;;;1.80;;
44704;SDS011;30431;48.520;9.046;2022-11-21T02:41:08;4.38;;;2.00;;
44704;SDS011;30431;48.520;9.046;2022-11-21T02:43:46;5.22;;;1.90;;
44704;SDS011;30431;48.520;9.046;2022-11-21T02:46:22;3.70;;;1.73;;
44704;SDS011;30431;48.520;9.046;2022-11-21T02:48:49;8.13;;;1.77;;
44704;SDS011;30431;48.520;9.046;2022-11-21T02:51:25;8.57;;;1.80;;
44704;SDS011;30431;48.520;9.046;2022-11-21T02:53:54;3.00;;;1.50;;
44704;SDS011;30431;48.520;9.046;2022-11-21T02:56:23;5.70;;;1.70;;
44704;SDS011;30431;48.520;9.046;2022-11-21T02:58:57;7.78;;;2.08;;
44704;SDS011;30431;48.520;9.046;2022-11-21T03:01:27;5.38;;;2.33;;
44704;SDS011;30431;48.520;9.046;2022-11-21T03:03:54;8.15;;;1.80;;
44704;SDS011;30431;48.520;9.046;2022-11-21T03:06:23;6.05;;;1.90;;
44704;SDS011;30431;48.520;9.046;2022-11-21T03:08:50;3.88;;;1.35;;
44704;SDS011;30431;48.520;9.046;2022-11-21T03:11:20;4.25;;;1.70;;
44704;SDS011;30431;48.520;9.046;2022-11-21T03:13:47;5.43;;;1.90;;
44704;SDS011;30431;48.520;9.046;2022-11-21T03:16:14;5.28;;;1.70;;
44704;SDS011;30431;48.520;9.046;2022-11-21T03:18:47;4.47;;;1.58;;
44704;SDS011;30431;48.520;9.046;2022-11-21T03:21:14;7.80;;;2.30;;
44704;SDS011;30431;48.520;9.046;2022-11-21T03:23:41;7.38;;;1.63;;
44704;SDS011;30431;48.520;9.046;2022-11-21T03:26:08;2.15;;;1.38;;
44704;SDS011;30431;48.520;9.046;2022-11-21T03:28:37;3.55;;;1.55;;
44704;SDS011;30431;48.520;9.046;2022-11-21T03:31:08;5.05;;;1.48;;
44704;SDS011;30431;48.520;9.046;2022-11-21T03:33:37;1.88;;;1.10;;
44704;SDS011;30431;48.520;9.046;2022-11-21T03:36:04;1.73;;;1.10;;
44704;SDS011;30431;48.520;9.046;2022-11-21T03:38:31;1.60;;;1.00;;
44704;SDS011;30431;48.520;9.046;2022-11-21T03:41:02;2.40;;;0.90;;
44704;SDS011;30431;48.520;9.046;2022-11-21T03:43:33;0.93;;;0.85;;
44704;SDS011;30431;48.520;9.046;2022-11-21T03:46:02;1.70;;;1.13;;
44704;SDS011;30431;48.520;9.046;2022-11-21T03:48:29;1.38;;;0.80;;
44704;SDS011;30431;48.520;9.046;2022-11-21T03:53:25;0.88;;;0.80;;
44704;SDS011;30431;48.520;9.046;2022-11-21T03:55:52;2.15;;;0.90;;
44704;SDS011;30431;48.520;9.046;2022-11-21T03:58:22;1.50;;;0.85;;
44704;SDS011;30431;48.520;9.046;2022-11-21T04:00:49;1.65;;;0.65;;
44704;SDS011;30431;48.520;9.046;2022-11-21T04:03:16;1.48;;;0.90;;
44704;SDS011;30431;48.520;9.046;2022-11-21T04:05:43;1.40;;;0.90;;
44704;SDS011;30431;48.520;9.046;2022-11-21T04:10:45;2.95;;;1.23;;
44704;SDS011;30431;48.520;9.046;2022-11-21T04:13:16;2.85;;;0.90;;
44704;SDS011;30431;48.520;9.046;2022-11-21T04:18:13;2.28;;;0.70;;
44704;SDS011;30431;48.520;9.046;2022-11-21T04:20:40;0.65;;;0.65;;
44704;SDS011;30431;48.520;9.046;2022-11-21T04:23:07;0.63;;;0.60;;
44704;SDS011;30431;48.520;9.046;2022-11-21T04:25:33;2.10;;;0.70;;
44704;SDS011;30431;48.520;9.046;2022-11-21T04:28:01;1.48;;;1.00;;
44704;SDS011;30431;48.520;9.046;2022-11-21T04:30:29;1.05;;;0.90;;
44704;SDS011;30431;48.520;9.046;2022-11-21T04:32:59;0.43;;;0.43;;
44704;SDS011;30431;48.520;9.046;2022-11-21T04:35:29;1.30;;;1.00;;
44704;SDS011;30431;48.520;9.046;2022-11-21T04:37:56;3.22;;;1.00;;
44704;SDS011;30431;48.520;9.046;2022-11-21T04:40:25;1.50;;;0.85;;
44704;SDS011;30431;48.520;9.046;2022-11-21T04:42:52;0.73;;;0.73;;
44704;SDS011;30431;48.520;9.046;2022-11-21T04:45:21;0.60;;;0.60;;
44704;SDS011;30431;48.520;9.046;2022-11-21T04:47:48;0.63;;;0.63;;
44704;SDS011;30431;48.520;9.046;2022-11-21T04:52:49;2.45;;;0.98;;
44704;SDS011;30431;48.520;9.046;2022-11-21T04:55:22;1.88;;;1.00;;
44704;SDS011;30431;48.520;9.046;2022-11-21T04:57:51;1.40;;;1.30;;
44704;SDS011;30431;48.520;9.046;2022-11-21T05:00:18;2.25;;;1.00;;
44704;SDS011;30431;48.520;9.046;2022-11-21T05:02:50;0.88;;;0.88;;
44704;SDS011;30431;48.520;9.046;2022-11-21T05:05:17;1.08;;;0.95;;
44704;SDS011;30431;48.520;9.046;2022-11-21T05:07:44;0.95;;;0.73;;
44704;SDS011;30431;48.520;9.046;2022-11-21T05:10:11;3.60;;;0.82;;
44704;SDS011;30431;48.520;9.046;2022-11-21T05:12:38;2.30;;;1.15;;
44704;SDS011;30431;48.520;9.046;2022-11-21T05:15:26;1.17;;;0.80;;
44704;SDS011;30431;48.520;9.046;2022-11-21T05:17:57;0.63;;;0.63;;
44704;SDS011;30431;48.520;9.046;2022-11-21T05:20:25;1.27;;;0.80;;
44704;SDS011;30431;48.520;9.046;2022-11-21T05:22:58;1.13;;;0.93;;
44704;SDS011;30431;48.520;9.046;2022-11-21T05:25:25;1.02;;;0.90;;
44704;SDS011;30431;48.520;9.046;2022-11-21T05:27:54;1.58;;;1.30;;
44704;SDS011;30431;48.520;9.046;2022-11-21T05:30:22;0.80;;;0.80;;
44704;SDS011;30431;48.520;9.046;2022-11-21T05:32:49;2.05;;;0.82;;
44704;SDS011;30431;48.520;9.046;2022-11-21T05:35:16;2.35;;;1.13;;
44704;SDS011;30431;48.520;9.046;2022-11-21T05:37:43;1.83;;;1.27;;
44704;SDS011;30431;48.520;9.046;2022-11-21T05:40:10;2.75;;;1.27;;
44704;SDS011;30431;48.520;9.046;2022-11-21T05:42:38;2.35;;;1.40;;
44704;SDS011;30431;48.520;9.046;2022-11-21T05:45:27;2.17;;;1.30;;
44704;SDS011;30431;48.520;9.046;2022-11-21T05:47:54;1.30;;;1.15;;
44704;SDS011;30431;48.520;9.046;2022-11-21T05:50:23;2.15;;;1.10;;
44704;SDS011;30431;48.520;9.046;2022-11-21T05:52:50;1.50;;;1.27;;
44704;SDS011;30431;48.520;9.046;2022-11-21T05:55:17;2.33;;;1.30;;
44704;SDS011;30431;48.520;9.046;2022-11-21T05:57:44;2.03;;;1.10;;
44704;SDS011;30431;48.520;9.046;2022-11-21T06:00:11;2.10;;;1.38;;
44704;SDS011;30431;48.520;9.046;2022-11-21T06:02:38;5.15;;;2.67;;
44704;SDS011;30431;48.520;9.046;2022-11-21T06:05:34;3.35;;;2.22;;
44704;SDS011;30431;48.520;9.046;2022-11-21T06:08:01;2.58;;;1.67;;
44704;SDS011;30431;48.520;9.046;2022-11-21T06:10:28;2.33;;;1.55;;
44704;SDS011;30431;48.520;9.046;2022-11-21T06:12:58;2.45;;;1.70;;
44704;SDS011;30431;48.520;9.046;2022-11-21T06:15:26;2.90;;;1.60;;
44704;SDS011;30431;48.520;9.046;2022-11-21T06:17:56;2.63;;;1.70;;
44704;SDS011;30431;48.520;9.046;2022-11-21T06:20:32;3.22;;;1.50;;
44704;SDS011;30431;48.520;9.046;2022-11-21T06:23:01;2.53;;;1.42;;
44704;SDS011;30431;48.520;9.046;2022-11-21T06:25:29;3.25;;;2.00;;
44704;SDS011;30431;48.520;9.046;2022-11-21T06:27:58;5.90;;;2.35;;
44704;SDS011;30431;48.520;9.046;2022-11-21T06:30:28;1.20;;;1.05;;
44704;SDS011;30431;48.520;9.046;2022-11-21T06:32:55;4.18;;;1.70;;
44704;SDS011;30431;48.520;9.046;2022-11-21T06:35:22;3.20;;;1.85;;
44704;SDS011;30431;48.520;9.046;2022-11-21T06:37:50;2.97;;;2.00;;
44704;SDS011;30431;48.520;9.046;2022-11-21T06:40:21;2.35;;;1.73;;
44704;SDS011;30431;48.520;9.046;2022-11-21T06:42:48;2.05;;;1.80;;
44704;SDS011;30431;48.520;9.046;2022-11-21T06:45:17;2.28;;;1.60;;
44704;SDS011;30431;48.520;9.046;2022-11-21T06:47:47;2.88;;;1.70;;
44704;SDS011;30431;48.520;9.046;2022-11-21T06:50:22;4.57;;;2.33;;
44704;SDS011;30431;48.520;9.046;2022-11-21T06:52:55;5.90;;;3.10;;
44704;SDS011;30431;48.520;9.046;2022-11-21T06:55:26;8.27;;;3.42;;
44704;SDS011;30431;48.520;9.046;2022-11-21T06:57:58;9.50;;;4.75;;
44704;SDS011;30431;48.520;9.046;2022-11-21T07:00:28;8.30;;;4.28;;
44704;SDS011;30431;48.520;9.046;2022-11-21T07:02:59;7.35;;;2.80;;
44704;SDS011;30431;48.520;9.046;2022-11-21T07:05:30;6.03;;;2.60;;
44704;SDS011;30431;48.520;9.046;2022-11-21T07:07:58;7.43;;;2.60;;
44704;SDS011;30431;48.520;9.046;2022-11-21T07:10:29;4.72;;;2.30;;
44704;SDS011;30431;48.520;9.046;2022-11-21T07:15:43;6.38;;;2.17;;
44704;SDS011;30431;48.520;9.046;2022-11-21T07:18:13;3.83;;;2.00;;
44704;SDS011;30431;48.520;9.046;2022-11-21T07:20:44;3.15;;;1.95;;
44704;SDS011;30431;48.520;9.046;2022-11-21T07:23:12;2.80;;;1.80;;
44704;SDS011;30431;48.520;9.046;2022-11-21T07:25:47;2.85;;;1.70;;
44704;SDS011;30431;48.520;9.046;2022-11-21T07:28:14;4.38;;;2.72;;
44704;SDS011;30431;48.520;9.046;2022-11-21T07:30:43;4.32;;;2.25;;
44704;SDS011;30431;48.520;9.046;2022-11-21T07:33:10;4.07;;;2.00;;
44704;SDS011;30431;48.520;9.046;2022-11-21T07:35:37;3.58;;;2.20;;
44704;SDS011;30431;48.520;9.046;2022-11-21T07:38:06;4.57;;;2.00;;
44704;SDS011;30431;48.520;9.046;2022-11-21T07:40:35;3.45;;;1.95;;
44704;SDS011;30431;48.520;9.046;2022-11-21T07:43:03;5.40;;;1.90;;
44704;SDS011;30431;48.520;9.046;2022-11-21T07:45:36;6.15;;;2.00;;
44704;SDS011;30431;48.520;9.046;2022-11-21T07:48:09;4.90;;;2.15;;
44704;SDS011;30431;48.520;9.046;2022-11-21T07:50:37;5.22;;;2.10;;
44704;SDS011;30431;48.520;9.046;2022-11-21T07:53:05;5.00;;;2.47;;
44704;SDS011;30431;48.520;9.046;2022-11-21T07:55:33;4.40;;;2.22;;
44704;SDS011;30431;48.520;9.046;2022-11-21T07:58:07;8.93;;;2.40;;
44704;SDS011;30431;48.520;9.046;2022-11-21T08:00:41;5.57;;;2.22;;
44704;SDS011;30431;48.520;9.046;2022-11-21T08:06:03;8.55;;;3.97;;
44704;SDS011;30431;48.520;9.046;2022-11-21T08:08:33;6.38;;;3.38;;
44704;SDS011;30431;48.520;9.046;2022-11-21T08:11:02;6.95;;;3.08;;
44704;SDS011;30431;48.520;9.046;2022-11-21T08:13:30;8.23;;;2.97;;
44704;SDS011;30431;48.520;9.046;2022-11-21T08:16:03;7.05;;;3.10;;
44704;SDS011;30431;48.520;9.046;2022-11-21T08:18:30;15.45;;;7.43;;
44704;SDS011;30431;48.520;9.046;2022-11-21T08:24:12;7.78;;;3.50;;
44704;SDS011;30431;48.520;9.046;2022-11-21T08:27:29;7.50;;;2.80;;
44704;SDS011;30431;48.520;9.046;2022-11-21T08:30:05;11.43;;;4.13;;
44704;SDS011;30431;48.520;9.046;2022-11-21T08:32:40;8.00;;;2.90;;
44704;SDS011;30431;48.520;9.046;2022-11-21T08:35:15;10.85;;;3.70;;
44704;SDS011;30431;48.520;9.046;2022-11-21T08:37:44;10.35;;;2.20;;
44704;SDS011;30431;48.520;9.046;2022-11-21T08:40:14;8.95;;;3.35;;
44704;SDS011;30431;48.520;9.046;2022-11-21T08:42:42;8.80;;;3.35;;
44704;SDS011;30431;48.520;9.046;2022-11-21T08:45:11;10.52;;;3.10;;
44704;SDS011;30431;48.520;9.046;2022-11-21T08:47:38;7.00;;;2.50;;
44704;SDS011;30431;48.520;9.046;2022-11-21T08:50:05;9.55;;;3.35;;
44704;SDS011;30431;48.520;9.046;2022-11-21T08:52:34;6.15;;;2.45;;
44704;SDS011;30431;48.520;9.046;2022-11-21T08:55:02;10.32;;;3.65;;
44704;SDS011;30431;48.520;9.046;2022-11-21T08:57:29;10.23;;;3.47;;
44704;SDS011;30431;48.520;9.046;2022-11-21T08:59:56;8.57;;;3.40;;
44704;SDS011;30431;48.520;9.046;2022-11-21T09:02:27;8.88;;;2.97;;
44704;SDS011;30431;48.520;9.046;2022-11-21T09:04:56;8.35;;;3.60;;
44704;SDS011;30431;48.520;9.046;2022-11-21T09:07:27;7.88;;;2.80;;
44704;SDS011;30431;48.520;9.046;2022-11-21T09:10:01;11.52;;;3.15;;
44704;SDS011;30431;48.520;9.046;2022-11-21T09:12:31;5.72;;;2.25;;
44704;SDS011;30431;48.520;9.046;2022-11-21T09:14:58;7.13;;;2.47;;
44704;SDS011;30431;48.520;9.046;2022-11-21T09:17:44;7.13;;;2.50;;
44704;SDS011;30431;48.520;9.046;2022-11-21T09:20:36;6.60;;;2.03;;
44704;SDS011;30431;48.520;9.046;2022-11-21T09:23:06;7.03;;;2.95;;
44704;SDS011;30431;48.520;9.046;2022-11-21T09:25:37;9.05;;;2.88;;
44704;SDS011;30431;48.520;9.046;2022-11-21T09:28:07;9.98;;;3.42;;
44704;SDS011;30431;48.520;9.046;2022-11-21T09:30:38;4.85;;;2.10;;
44704;SDS011;30431;48.520;9.046;2022-11-21T09:33:09;6.18;;;1.90;;
44704;SDS011;30431;48.520;9.046;2022-11-21T09:35:38;7.13;;;2.40;;
44704;SDS011;30431;48.520;9.046;2022-11-21T09:40:32;7.03;;;2.25;;
44704;SDS011;30431;48.520;9.046;2022-11-21T09:43:17;6.05;;;2.33;;
44704;SDS011;30431;48.520;9.046;2022-11-21T09:45:57;6.43;;;2.25;;
44704;SDS011;30431;48.520;9.046;2022-11-21T09:48:29;6.80;;;2.38;;
44704;SDS011;30431;48.520;9.046;2022-11-21T09:51:03;7.78;;;2.67;;
44704;SDS011;30431;48.520;9.046;2022-11-21T09:53:36;8.98;;;2.83;;
44704;SDS011;30431;48.520;9.046;2022-11-21T10:01:27;7.97;;;2.30;;
44704;SDS011;30431;48.520;9.046;2022-11-21T10:03:59;7.28;;;2.60;;
44704;SDS011;30431;48.520;9.046;2022-11-21T10:06:30;6.53;;;2.35;;
44704;SDS011;30431;48.520;9.046;2022-11-21T10:18:07;9.90;;;2.75;;
44704;SDS011;30431;48.520;9.046;2022-11-21T10:23:51;10.57;;;2.70;;
44704;SDS011;30431;48.520;9.046;2022-11-21T10:29:19;10.13;;;3.20;;
44704;SDS011;30431;48.520;9.046;2022-11-21T10:31:48;9.80;;;3.00;;
44704;SDS011;30431;48.520;9.046;2022-11-21T10:34:28;8.30;;;3.25;;
44704;SDS011;30431;48.520;9.046;2022-11-21T10:37:07;11.00;;;5.68;;
44704;SDS011;30431;48.520;9.046;2022-11-21T10:39:45;5.82;;;2.10;;
44704;SDS011;30431;48.520;9.046;2022-11-21T10:45:04;9.07;;;2.30;;
44704;SDS011;30431;48.520;9.046;2022-11-21T10:47:47;7.15;;;2.20;;
44704;SDS011;30431;48.520;9.046;2022-11-21T10:56:13;8.98;;;2.40;;
44704;SDS011;30431;48.520;9.046;2022-11-21T10:58:49;7.97;;;3.17;;
44704;SDS011;30431;48.520;9.046;2022-11-21T11:01:30;8.52;;;2.22;;
44704;SDS011;30431;48.520;9.046;2022-11-21T11:10:20;6.35;;;2.17;;
44704;SDS011;30431;48.520;9.046;2022-11-21T11:12:53;9.50;;;2.45;;
44704;SDS011;30431;48.520;9.046;2022-11-21T11:16:15;6.65;;;2.20;;
44704;SDS011;30431;48.520;9.046;2022-11-21T11:18:50;8.13;;;2.35;;
44704;SDS011;30431;48.520;9.046;2022-11-21T11:31:54;6.25;;;1.95;;
44704;SDS011;30431;48.520;9.046;2022-11-21T11:34:35;5.68;;;2.00;;
44704;SDS011;30431;48.520;9.046;2022-11-21T11:42:19;6.85;;;2.00;;
44704;SDS011;30431;48.520;9.046;2022-11-21T11:45:15;5.18;;;1.70;;
44704;SDS011;30431;48.520;9.046;2022-11-21T11:48:12;6.50;;;2.20;;
44704;SDS011;30431;48.520;9.046;2022-11-21T11:50:42;5.68;;;2.40;;
44704;SDS011;30431;48.520;9.046;2022-11-21T12:04:43;8.82;;;2.55;;
44704;SDS011;30431;48.520;9.046;2022-11-21T12:12:37;8.43;;;2.90;;
44704;SDS011;30431;48.520;9.046;2022-11-21T12:15:15;6.90;;;1.98;;
44704;SDS011;30431;48.520;9.046;2022-11-21T12:23:49;7.38;;;2.33;;
44704;SDS011;30431;48.520;9.046;2022-11-21T12:37:48;8.70;;;2.17;;
44704;SDS011;30431;48.520;9.046;2022-11-21T12:43:23;9.40;;;2.20;;
44704;SDS011;30431;48.520;9.046;2022-11-21T12:46:13;8.95;;;3.15;;
44704;SDS011;30431;48.520;9.046;2022-11-21T12:52:11;8.60;;;2.45;;
44704;SDS011;30431;48.520;9.046;2022-11-21T13:03:49;7.97;;;3.13;;
44704;SDS011;30431;48.520;9.046;2022-11-21T13:06:25;7.38;;;2.25;;
44704;SDS011;30431;48.520;9.046;2022-11-21T13:09:00;4.93;;;1.92;;
44704;SDS011;30431;48.520;9.046;2022-11-21T13:11:37;4.15;;;2.05;;
44704;SDS011;30431;48.520;9.046;2022-11-21T13:22:54;8.43;;;1.77;;
44704;SDS011;30431;48.520;9.046;2022-11-21T13:25:45;6.47;;;2.20;;
44704;SDS011;30431;48.520;9.046;2022-11-21T13:57:47;9.02;;;2.67;;
44704;SDS011;30431;48.520;9.046;2022-11-21T14:03:08;10.32;;;3.10;;
44704;SDS011;30431;48.520;9.046;2022-11-21T14:05:49;9.15;;;3.20;;
44704;SDS011;30431;48.520;9.046;2022-11-21T14:11:42;7.80;;;2.58;;
44704;SDS011;30431;48.520;9.046;2022-11-21T14:14:35;6.72;;;2.80;;
44704;SDS011;30431;48.520;9.046;2022-11-21T14:23:24;6.72;;;3.05;;
44704;SDS011;30431;48.520;9.046;2022-11-21T14:26:04;6.18;;;2.20;;
44704;SDS011;30431;48.520;9.046;2022-11-21T14:28:39;7.60;;;2.55;;
44704;SDS011;30431;48.520;9.046;2022-11-21T14:31:13;7.38;;;2.38;;
44704;SDS011;30431;48.520;9.046;2022-11-21T14:33:41;7.63;;;2.47;;
44704;SDS011;30431;48.520;9.046;2022-11-21T14:38:52;7.90;;;2.40;;
44704;SDS011;30431;48.520;9.046;2022-11-21T14:41:40;8.05;;;2.67;;
44704;SDS011;30431;48.520;9.046;2022-11-21T14:46:38;7.32;;;2.30;;
44704;SDS011;30431;48.520;9.046;2022-11-21T14:52:03;7.80;;;2.38;;
44704;SDS011;30431;48.520;9.046;2022-11-21T14:57:59;8.00;;;2.80;;
44704;SDS011;30431;48.520;9.046;2022-11-21T15:00:29;8.50;;;2.75;;
44704;SDS011;30431;48.520;9.046;2022-11-21T15:03:21;7.88;;;3.38;;
44704;SDS011;30431;48.520;9.046;2022-11-21T15:05:56;7.20;;;3.05;;
44704;SDS011;30431;48.520;9.046;2022-11-21T15:08:36;11.93;;;3.25;;
44704;SDS011;30431;48.520;9.046;2022-11-21T15:11:29;8.32;;;2.80;;
44704;SDS011;30431;48.520;9.046;2022-11-21T15:14:04;8.90;;;2.60;;
44704;SDS011;30431;48.520;9.046;2022-11-21T15:16:55;8.65;;;2.60;;
44704;SDS011;30431;48.520;9.046;2022-11-21T15:19:25;11.88;;;2.60;;
44704;SDS011;30431;48.520;9.046;2022-11-21T15:21:55;10.07;;;2.80;;
44704;SDS011;30431;48.520;9.046;2022-11-21T15:35:28;8.30;;;2.72;;
44704;SDS011;30431;48.520;9.046;2022-11-21T15:46:08;9.75;;;3.25;;
44704;SDS011;30431;48.520;9.046;2022-11-21T15:48:49;11.18;;;3.55;;
44704;SDS011;30431;48.520;9.046;2022-11-21T15:51:24;11.38;;;3.92;;
44704;SDS011;30431;48.520;9.046;2022-11-21T15:54:24;12.07;;;3.38;;
44704;SDS011;30431;48.520;9.046;2022-11-21T15:56:54;8.68;;;3.60;;
44704;SDS011;30431;48.520;9.046;2022-11-21T15:59:21;12.38;;;4.05;;
44704;SDS011;30431;48.520;9.046;2022-11-21T16:01:50;10.60;;;3.03;;
44704;SDS011;30431;48.520;9.046;2022-11-21T16:04:23;7.43;;;3.30;;
44704;SDS011;30431;48.520;9.046;2022-11-21T16:06:52;9.40;;;3.28;;
44704;SDS011;30431;48.520;9.046;2022-11-21T16:09:19;12.50;;;3.90;;
44704;SDS011;30431;48.520;9.046;2022-11-21T16:11:49;16.15;;;4.07;;
44704;SDS011;30431;48.520;9.046;2022-11-21T16:14:19;12.18;;;3.58;;
44704;SDS011;30431;48.520;9.046;2022-11-21T16:16:50;9.88;;;3.33;;
44704;SDS011;30431;48.520;9.046;2022-11-21T16:19:17;11.70;;;3.30;;
44704;SDS011;30431;48.520;9.046;2022-11-21T16:21:45;8.20;;;3.78;;
44704;SDS011;30431;48.520;9.046;2022-11-21T16:24:14;8.43;;;3.33;;
44704;SDS011;30431;48.520;9.046;2022-11-21T16:31:39;10.85;;;4.65;;
44704;SDS011;30431;48.520;9.046;2022-11-21T16:34:08;15.40;;;4.30;;
44704;SDS011;30431;48.520;9.046;2022-11-21T16:36:35;10.90;;;4.82;;
44704;SDS011;30431;48.520;9.046;2022-11-21T16:41:37;9.70;;;3.75;;
44704;SDS011;30431;48.520;9.046;2022-11-21T16:44:10;9.57;;;3.55;;
44704;SDS011;30431;48.520;9.046;2022-11-21T16:46:43;11.65;;;3.97;;
44704;SDS011;30431;48.520;9.046;2022-11-21T16:49:12;10.23;;;3.67;;
44704;SDS011;30431;48.520;9.046;2022-11-21T16:51:39;15.75;;;4.25;;
44704;SDS011;30431;48.520;9.046;2022-11-21T16:54:06;13.90;;;3.70;;
44704;SDS011;30431;48.520;9.046;2022-11-21T16:56:35;10.73;;;3.58;;
44704;SDS011;30431;48.520;9.046;2022-11-21T16:59:04;11.27;;;4.20;;
44704;SDS011;30431;48.520;9.046;2022-11-21T17:03:59;11.30;;;3.60;;
44704;SDS011;30431;48.520;9.046;2022-11-21T17:06:27;11.57;;;4.03;;
44704;SDS011;30431;48.520;9.046;2022-11-21T17:08:55;13.60;;;4.20;;
44704;SDS011;30431;48.520;9.046;2022-11-21T17:11:27;12.52;;;4.20;;
44704;SDS011;30431;48.520;9.046;2022-11-21T17:14:02;13.05;;;4.20;;
44704;SDS011;30431;48.520;9.046;2022-11-21T17:16:33;9.00;;;4.07;;
44704;SDS011;30431;48.520;9.046;2022-11-21T17:19:08;10.65;;;4.65;;
44704;SDS011;30431;48.520;9.046;2022-11-21T17:21:40;11.98;;;6.10;;
44704;SDS011;30431;48.520;9.046;2022-11-21T17:24:13;13.45;;;6.13;;
44704;SDS011;30431;48.520;9.046;2022-11-21T17:26:40;9.63;;;4.30;;
44704;SDS011;30431;48.520;9.046;2022-11-21T17:29:10;20.55;;;9.40;;
44704;SDS011;30431;48.520;9.046;2022-11-21T17:31:37;12.05;;;4.72;;
44704;SDS011;30431;48.520;9.046;2022-11-21T17:36:33;10.75;;;4.90;;
44704;SDS011;30431;48.520;9.046;2022-11-21T17:39:03;14.25;;;6.28;;
44704;SDS011;30431;48.520;9.046;2022-11-21T17:41:30;13.68;;;6.07;;
44704;SDS011;30431;48.520;9.046;2022-11-21T17:43:57;13.48;;;5.75;;
44704;SDS011;30431;48.520;9.046;2022-11-21T17:46:26;11.85;;;6.10;;
44704;SDS011;30431;48.520;9.046;2022-11-21T17:51:27;17.92;;;7.80;;
44704;SDS011;30431;48.520;9.046;2022-11-21T17:56:30;12.50;;;5.45;;
44704;SDS011;30431;48.520;9.046;2022-11-21T17:58:58;12.50;;;5.63;;
44704;SDS011;30431;48.520;9.046;2022-11-21T18:01:26;12.95;;;6.57;;
44704;SDS011;30431;48.520;9.046;2022-11-21T18:04:01;15.18;;;7.22;;
44704;SDS011;30431;48.520;9.046;2022-11-21T18:06:37;15.52;;;6.40;;
44704;SDS011;30431;48.520;9.046;2022-11-21T18:09:06;15.15;;;6.50;;
44704;SDS011;30431;48.520;9.046;2022-11-21T18:11:38;13.20;;;6.00;;
44704;SDS011;30431;48.520;9.046;2022-11-21T18:14:06;13.35;;;6.75;;
44704;SDS011;30431;48.520;9.046;2022-11-21T18:16:37;14.88;;;6.82;;
44704;SDS011;30431;48.520;9.046;2022-11-21T18:19:06;68.97;;;40.40;;
44704;SDS011;30431;48.520;9.046;2022-11-21T18:21:36;20.58;;;9.50;;
44704;SDS011;30431;48.520;9.046;2022-11-21T18:24:06;24.80;;;10.25;;
44704;SDS011;30431;48.520;9.046;2022-11-21T18:26:37;29.65;;;16.27;;
44704;SDS011;30431;48.520;9.046;2022-11-21T18:29:08;30.92;;;14.68;;
44704;SDS011;30431;48.520;9.046;2022-11-21T18:32:01;22.88;;;10.43;;
44704;SDS011;30431;48.520;9.046;2022-11-21T18:34:28;25.15;;;11.05;;
44704;SDS011;30431;48.520;9.046;2022-11-21T18:36:54;22.15;;;9.15;;
44704;SDS011;30431;48.520;9.046;2022-11-21T18:39:22;18.92;;;9.02;;
44704;SDS011;30431;48.520;9.046;2022-11-21T18:41:50;18.40;;;8.05;;
44704;SDS011;30431;48.520;9.046;2022-11-21T18:46:48;15.07;;;5.68;;
44704;SDS011;30431;48.520;9.046;2022-11-21T18:49:15;11.75;;;5.00;;
44704;SDS011;30431;48.520;9.046;2022-11-21T18:51:44;15.40;;;5.65;;
44704;SDS011;30431;48.520;9.046;2022-11-21T18:54:11;12.85;;;5.90;;
44704;SDS011;30431;48.520;9.046;2022-11-21T18:56:39;14.20;;;5.63;;
44704;SDS011;30431;48.520;9.046;2022-11-21T18:59:06;12.50;;;5.43;;
44704;SDS011;30431;48.520;9.046;2022-11-21T19:01:41;13.90;;;6.80;;
44704;SDS011;30431;48.520;9.046;2022-11-21T19:04:08;15.93;;;7.65;;